www.cux-wetter.de
Wetterdaten: Sonntag, 21.01.2007
Datum Zeit Temp. A. Feuchte A. Luftdruck Regen Wind Richtung Richtung Sonnenschein Solar Taupunkt Windchill Windben
21.01.2007 00:00 7,6 C 78 % 1002,5 hPa 0,0 l/m 47,7 km/h (6 Bft) W 265 0 min 0 W/m 4,0 C -5,7 C 47,7 km/h (6 Bft)
21.01.2007 00:15 7,6 C 78 % 1002,5 hPa 0,0 l/m 45,7 km/h (6 Bft) W 260 0 min 0 W/m 4,0 C -5,5 C 45,7 km/h (6 Bft)
21.01.2007 00:30 7,6 C 78 % 1001,5 hPa 0,0 l/m 51,7 km/h (7 Bft) W-SW 255 0 min 0 W/m 4,0 C -6,2 C 51,7 km/h (7 Bft)
21.01.2007 00:45 7,6 C 78 % 1002,5 hPa 0,0 l/m 50,1 km/h (7 Bft) W 265 0 min 0 W/m 4,0 C -6,0 C 50,1 km/h (7 Bft)
21.01.2007 01:00 7,4 C 79 % 1002,5 hPa 0,0 l/m 42,7 km/h (6 Bft) W 260 0 min 0 W/m 4,0 C -5,4 C 42,7 km/h (6 Bft)
21.01.2007 01:15 7,3 C 80 % 1001,5 hPa 0,0 l/m 48,2 km/h (6 Bft) W 260 0 min 0 W/m 4,1 C -6,3 C 48,2 km/h (6 Bft)
21.01.2007 01:30 7,3 C 80 % 1001,5 hPa 0,0 l/m 40,5 km/h (6 Bft) W-SW 255 0 min 0 W/m 4,1 C -5,2 C 40,5 km/h (6 Bft)
21.01.2007 01:45 7,2 C 81 % 1001,5 hPa 0,0 l/m 46,3 km/h (6 Bft) W-SW 255 0 min 0 W/m 4,2 C -6,2 C 46,3 km/h (6 Bft)
21.01.2007 02:00 7,2 C 80 % 1001,5 hPa 0,0 l/m 48,7 km/h (7 Bft) W 265 0 min 0 W/m 4,0 C -6,5 C 48,7 km/h (7 Bft)
21.01.2007 02:15 7,2 C 80 % 1001,5 hPa 0,0 l/m 48,5 km/h (6 Bft) W 260 0 min 0 W/m 4,0 C -6,4 C 48,5 km/h (6 Bft)
21.01.2007 02:30 7,2 C 80 % 1000,5 hPa 0,0 l/m 51,8 km/h (7 Bft) W-SW 255 0 min 0 W/m 4,0 C -6,8 C 51,8 km/h (7 Bft)
21.01.2007 02:45 7,2 C 81 % 1000,5 hPa 0,0 l/m 46,4 km/h (6 Bft) W 265 0 min 0 W/m 4,2 C -6,2 C 46,4 km/h (6 Bft)
21.01.2007 03:00 7,1 C 81 % 1000,5 hPa 0,0 l/m 50,4 km/h (7 Bft) W 260 0 min 0 W/m 4,1 C -6,8 C 50,4 km/h (7 Bft)
21.01.2007 03:15 7,2 C 81 % 1000,5 hPa 0,0 l/m 47,4 km/h (6 Bft) W 260 0 min 0 W/m 4,2 C -6,3 C 47,4 km/h (6 Bft)
21.01.2007 03:30 7,2 C 82 % 1000,5 hPa 0,0 l/m 44,1 km/h (6 Bft) W 260 0 min 0 W/m 4,3 C -5,9 C 44,1 km/h (6 Bft)
21.01.2007 03:45 7,1 C 81 % 1000,5 hPa 0,0 l/m 43,8 km/h (6 Bft) W 260 0 min 0 W/m 4,1 C -6,0 C 43,8 km/h (6 Bft)
21.01.2007 04:00 7,0 C 81 % 999,5 hPa 0,0 l/m 47,4 km/h (6 Bft) W-SW 255 0 min 0 W/m 4,0 C -6,6 C 47,4 km/h (6 Bft)
21.01.2007 04:15 6,8 C 83 % 999,5 hPa 0,0 l/m 51,5 km/h (7 Bft) W 260 0 min 0 W/m 4,1 C -7,4 C 51,5 km/h (7 Bft)
21.01.2007 04:30 6,7 C 83 % 999,5 hPa 0,0 l/m 54,5 km/h (7 Bft) W-SW 245 0 min 0 W/m 4,0 C -7,8 C 54,5 km/h (7 Bft)
21.01.2007 04:45 6,9 C 82 % 999,5 hPa 0,0 l/m 43,7 km/h (6 Bft) W-SW 250 0 min 0 W/m 4,0 C -6,3 C 43,7 km/h (6 Bft)
21.01.2007 05:00 6,8 C 83 % 999,5 hPa 0,0 l/m 45,4 km/h (6 Bft) W 260 0 min 0 W/m 4,1 C -6,7 C 45,4 km/h (6 Bft)
21.01.2007 05:15 6,7 C 83 % 999,5 hPa 0,0 l/m 48,1 km/h (6 Bft) W-SW 250 0 min 0 W/m 4,0 C -7,2 C 48,1 km/h (6 Bft)
21.01.2007 05:30 6,6 C 83 % 998,5 hPa 0,0 l/m 48,5 km/h (6 Bft) W 260 0 min 0 W/m 3,9 C -7,4 C 48,5 km/h (6 Bft)
21.01.2007 05:45 6,5 C 83 % 998,5 hPa 0,0 l/m 42,9 km/h (6 Bft) W 260 0 min 0 W/m 3,8 C -6,8 C 42,9 km/h (6 Bft)
21.01.2007 06:00 6,1 C 85 % 998,5 hPa 0,0 l/m 45,5 km/h (6 Bft) W-SW 255 0 min 0 W/m 3,8 C -7,7 C 45,5 km/h (6 Bft)
21.01.2007 06:15 6,1 C 86 % 997,5 hPa 0,0 l/m 48,8 km/h (7 Bft) W-SW 250 0 min 0 W/m 3,9 C -8,2 C 48,8 km/h (7 Bft)
21.01.2007 06:30 6,0 C 86 % 997,5 hPa 0,0 l/m 41,5 km/h (6 Bft) W-SW 255 0 min 0 W/m 3,8 C -7,3 C 41,5 km/h (6 Bft)
21.01.2007 06:45 5,9 C 86 % 997,5 hPa 0,0 l/m 42,6 km/h (6 Bft) W-SW 255 0 min 0 W/m 3,7 C -7,6 C 42,6 km/h (6 Bft)
21.01.2007 07:00 5,9 C 85 % 996,5 hPa 0,0 l/m 48,4 km/h (6 Bft) W-SW 250 0 min 0 W/m 3,6 C -8,4 C 48,4 km/h (6 Bft)
21.01.2007 07:16 5,8 C 87 % 996,5 hPa 0,0 l/m 42,8 km/h (6 Bft) W-SW 250 0 min 0 W/m 3,8 C -7,8 C 42,8 km/h (6 Bft)
21.01.2007 07:30 5,5 C 88 % 996,5 hPa 0,0 l/m 40,9 km/h (6 Bft) W-SW 255 0 min 0 W/m 3,7 C -7,9 C 40,9 km/h (6 Bft)
21.01.2007 07:45 5,6 C 87 % 996,5 hPa 0,0 l/m 41,3 km/h (6 Bft) W-SW 245 0 min 0 W/m 3,6 C -7,9 C 41,3 km/h (6 Bft)
21.01.2007 08:00 5,4 C 87 % 996,5 hPa 0,0 l/m 40,6 km/h (6 Bft) W-SW 240 0 min 0 W/m 3,4 C -8,0 C 40,6 km/h (6 Bft)
21.01.2007 08:16 5,2 C 89 % 995,5 hPa 0,0 l/m 36,0 km/h (5 Bft) W-SW 245 0 min 0 W/m 3,5 C -7,5 C 36,0 km/h (5 Bft)
21.01.2007 08:31 5,3 C 89 % 995,5 hPa 0,0 l/m 38,9 km/h (6 Bft) SW 235 0 min 0 W/m 3,6 C -7,9 C 38,9 km/h (6 Bft)
21.01.2007 08:46 5,6 C 90 % 995,5 hPa 0,0 l/m 36,5 km/h (5 Bft) W-SW 250 0 min 0 W/m 4,1 C -7,0 C 36,5 km/h (5 Bft)
21.01.2007 09:00 6,5 C 87 % 995,5 hPa 0,0 l/m 37,5 km/h (5 Bft) W-SW 240 0 min 0 W/m 4,5 C -5,9 C 37,5 km/h (5 Bft)
21.01.2007 09:15 6,5 C 82 % 995,5 hPa 0,0 l/m 44,2 km/h (6 Bft) W-SW 255 0 min 0 W/m 3,7 C -6,9 C 44,2 km/h (6 Bft)
21.01.2007 09:30 5,2 C 85 % 995,5 hPa 0,0 l/m 48,8 km/h (7 Bft) W 260 0 min 0 W/m 2,9 C -9,5 C 48,8 km/h (7 Bft)
21.01.2007 09:45 4,7 C 87 % 995,5 hPa 0,0 l/m 46,0 km/h (6 Bft) W-SW 255 0 min 0 W/m 2,7 C -9,9 C 46,0 km/h (6 Bft)
21.01.2007 10:01 4,6 C 89 % 995,5 hPa 0,0 l/m 42,2 km/h (6 Bft) W-SW 255 0 min 0 W/m 2,9 C -9,5 C 42,2 km/h (6 Bft)
21.01.2007 10:15 4,2 C 90 % 995,5 hPa 0,0 l/m 43,2 km/h (6 Bft) W-SW 250 0 min 0 W/m 2,7 C -10,3 C 43,2 km/h (6 Bft)
21.01.2007 10:30 3,9 C 92 % 995,5 hPa 0,3 l/m 42,6 km/h (6 Bft) W-SW 255 0 min 0 W/m 2,7 C -10,6 C 42,6 km/h (6 Bft)
21.01.2007 10:45 4,2 C 92 % 995,5 hPa 0,0 l/m 39,6 km/h (6 Bft) W 260 0 min 0 W/m 3,0 C -9,6 C 39,6 km/h (6 Bft)
21.01.2007 11:00 4,4 C 91 % 995,5 hPa 0,0 l/m 41,4 km/h (6 Bft) W 265 0 min 0 W/m 3,1 C -9,7 C 41,4 km/h (6 Bft)
21.01.2007 11:15 4,5 C 91 % 995,5 hPa 0,0 l/m 37,3 km/h (5 Bft) W 265 0 min 0 W/m 3,2 C -8,8 C 37,3 km/h (5 Bft)
21.01.2007 11:30 4,7 C 93 % 995,5 hPa 0,0 l/m 41,6 km/h (6 Bft) W-NW 285 0 min 0 W/m 3,7 C -9,2 C 41,6 km/h (6 Bft)
21.01.2007 11:45 4,7 C 92 % 995,5 hPa 0,3 l/m 41,9 km/h (6 Bft) W 270 0 min 0 W/m 3,5 C -9,3 C 41,9 km/h (6 Bft)
21.01.2007 12:00 5,1 C 92 % 995,5 hPa 0,0 l/m 37,7 km/h (5 Bft) W-SW 255 0 min 0 W/m 3,9 C -8,0 C 37,7 km/h (5 Bft)
21.01.2007 12:16 4,9 C 93 % 996,5 hPa 0,6 l/m 30,0 km/h (5 Bft) W-NW 285 0 min 0 W/m 3,9 C -6,5 C 30,0 km/h (5 Bft)
21.01.2007 12:31 5,7 C 91 % 996,5 hPa 0,0 l/m 38,5 km/h (6 Bft) W-NW 300 0 min 0 W/m 4,3 C -7,2 C 38,5 km/h (6 Bft)
21.01.2007 12:46 6,1 C 87 % 996,5 hPa 0,0 l/m 35,8 km/h (5 Bft) NW 315 0 min 0 W/m 4,1 C -6,1 C 35,8 km/h (5 Bft)
21.01.2007 13:00 6,0 C 85 % 997,5 hPa 0,0 l/m 53,8 km/h (7 Bft) NW 320 0 min 0 W/m 3,7 C -8,9 C 53,8 km/h (7 Bft)
21.01.2007 13:15 5,6 C 86 % 997,5 hPa 0,3 l/m 44,1 km/h (6 Bft) N-NW 330 0 min 0 W/m 3,4 C -8,3 C 44,1 km/h (6 Bft)
21.01.2007 13:30 6,2 C 85 % 997,5 hPa 0,0 l/m 37,0 km/h (5 Bft) W-NW 295 0 min 0 W/m 3,9 C -6,2 C 37,0 km/h (5 Bft)
21.01.2007 13:45 6,8 C 85 % 998,5 hPa 0,0 l/m 42,9 km/h (6 Bft) NW 305 0 min 0 W/m 4,5 C -6,3 C 42,9 km/h (6 Bft)
21.01.2007 14:01 7,6 C 75 % 998,5 hPa 0,0 l/m 46,2 km/h (6 Bft) NW 310 0 min 0 W/m 3,5 C -5,6 C 46,2 km/h (6 Bft)
21.01.2007 14:15 7,8 C 72 % 999,5 hPa 0,0 l/m 54,0 km/h (7 Bft) NW 305 0 min 0 W/m 3,1 C -6,1 C 54,0 km/h (7 Bft)
21.01.2007 14:30 7,8 C 76 % 999,5 hPa 0,0 l/m 49,7 km/h (7 Bft) W-NW 300 0 min 0 W/m 3,8 C -5,7 C 49,7 km/h (7 Bft)
21.01.2007 14:45 7,7 C 73 % 999,5 hPa 0,0 l/m 54,3 km/h (7 Bft) W-NW 295 0 min 0 W/m 3,2 C -6,3 C 54,3 km/h (7 Bft)
21.01.2007 15:00 7,6 C 73 % 1000,5 hPa 0,0 l/m 47,5 km/h (6 Bft) W-NW 300 0 min 0 W/m 3,1 C -5,7 C 47,5 km/h (6 Bft)
21.01.2007 15:16 7,7 C 74 % 1000,5 hPa 0,0 l/m 60,2 km/h (7 Bft) W-NW 295 0 min 0 W/m 3,4 C -6,8 C 60,2 km/h (7 Bft)
21.01.2007 15:30 7,6 C 76 % 1000,5 hPa 0,0 l/m 48,1 km/h (6 Bft) NW 305 0 min 0 W/m 3,6 C -5,8 C 48,1 km/h (6 Bft)
21.01.2007 15:45 7,1 C 79 % 1000,5 hPa 0,0 l/m 53,2 km/h (7 Bft) W-NW 295 0 min 0 W/m 3,7 C -7,1 C 53,2 km/h (7 Bft)
21.01.2007 16:00 6,2 C 81 % 1001,5 hPa 0,0 l/m 55,8 km/h (7 Bft) NW 305 0 min 0 W/m 3,2 C -8,7 C 55,8 km/h (7 Bft)
21.01.2007 16:16 6,1 C 84 % 1001,5 hPa 0,0 l/m 42,9 km/h (6 Bft) W-NW 300 0 min 0 W/m 3,6 C -7,4 C 42,9 km/h (6 Bft)
21.01.2007 16:31 6,1 C 80 % 1001,5 hPa 0,0 l/m 47,9 km/h (6 Bft) NW 315 0 min 0 W/m 2,9 C -8,0 C 47,9 km/h (6 Bft)
21.01.2007 16:46 6,6 C 77 % 1001,5 hPa 0,0 l/m 55,9 km/h (7 Bft) NW 315 0 min 0 W/m 2,9 C -8,1 C 55,9 km/h (7 Bft)
21.01.2007 17:01 6,3 C 79 % 1002,5 hPa 0,0 l/m 34,2 km/h (5 Bft) W-NW 290 0 min 0 W/m 2,9 C -5,5 C 34,2 km/h (5 Bft)
21.01.2007 17:15 6,6 C 80 % 1002,5 hPa 0,0 l/m 37,4 km/h (5 Bft) W-NW 295 0 min 0 W/m 3,4 C -5,7 C 37,4 km/h (5 Bft)
21.01.2007 17:30 6,2 C 86 % 1002,5 hPa 0,0 l/m 41,3 km/h (6 Bft) W 265 0 min 0 W/m 4,0 C -7,0 C 41,3 km/h (6 Bft)
21.01.2007 17:46 5,7 C 84 % 1002,5 hPa 0,6 l/m 37,2 km/h (5 Bft) W 270 0 min 0 W/m 3,2 C -7,0 C 37,2 km/h (5 Bft)
21.01.2007 18:01 5,8 C 87 % 1002,5 hPa 0,0 l/m 32,2 km/h (5 Bft) W-NW 290 0 min 0 W/m 3,8 C -5,8 C 32,2 km/h (5 Bft)
21.01.2007 18:15 5,9 C 88 % 1002,5 hPa 0,0 l/m 34,5 km/h (5 Bft) W-NW 295 0 min 0 W/m 4,1 C -6,1 C 34,5 km/h (5 Bft)
21.01.2007 18:30 6,0 C 87 % 1002,5 hPa 0,0 l/m 29,6 km/h (5 Bft) W-NW 290 0 min 0 W/m 4,0 C -4,9 C 29,6 km/h (5 Bft)
21.01.2007 18:45 6,0 C 87 % 1003,5 hPa 0,0 l/m 30,1 km/h (5 Bft) W 275 0 min 0 W/m 4,0 C -5,0 C 30,1 km/h (5 Bft)
21.01.2007 19:00 6,1 C 88 % 1003,5 hPa 0,0 l/m 36,2 km/h (5 Bft) W-SW 255 0 min 0 W/m 4,3 C -6,2 C 36,2 km/h (5 Bft)
21.01.2007 19:15 5,3 C 89 % 1003,5 hPa 0,3 l/m 41,7 km/h (6 Bft) W 275 0 min 0 W/m 3,6 C -8,4 C 41,7 km/h (6 Bft)
21.01.2007 19:30 5,7 C 91 % 1003,5 hPa 0,0 l/m 26,6 km/h (4 Bft) W 260 0 min 0 W/m 4,3 C -4,5 C 26,6 km/h (4 Bft)
21.01.2007 19:45 6,0 C 91 % 1003,5 hPa 0,0 l/m 29,6 km/h (5 Bft) W-NW 285 0 min 0 W/m 4,6 C -4,9 C 29,6 km/h (5 Bft)
21.01.2007 20:00 5,3 C 91 % 1003,5 hPa 0,3 l/m 32,4 km/h (5 Bft) W-NW 285 0 min 0 W/m 4,0 C -6,5 C 32,4 km/h (5 Bft)
21.01.2007 20:16 5,7 C 90 % 1003,5 hPa 0,0 l/m 25,7 km/h (4 Bft) W 270 0 min 0 W/m 4,2 C -4,2 C 25,7 km/h (4 Bft)
21.01.2007 20:30 6,0 C 90 % 1003,5 hPa 0,0 l/m 30,2 km/h (5 Bft) W 260 0 min 0 W/m 4,5 C -5,0 C 30,2 km/h (5 Bft)
21.01.2007 20:45 5,8 C 87 % 1003,5 hPa 0,0 l/m 31,6 km/h (5 Bft) W 270 0 min 0 W/m 3,8 C -5,6 C 31,6 km/h (5 Bft)
21.01.2007 21:00 5,4 C 88 % 1004,5 hPa 0,0 l/m 39,3 km/h (6 Bft) W 275 0 min 0 W/m 3,6 C -7,8 C 39,3 km/h (6 Bft)
21.01.2007 21:16 5,4 C 90 % 1004,5 hPa 0,3 l/m 41,5 km/h (6 Bft) W 265 0 min 0 W/m 3,9 C -8,2 C 41,5 km/h (6 Bft)
21.01.2007 21:31 5,4 C 85 % 1004,5 hPa 0,0 l/m 37,3 km/h (5 Bft) W 270 0 min 0 W/m 3,1 C -7,4 C 37,3 km/h (5 Bft)
21.01.2007 21:46 5,5 C 85 % 1004,5 hPa 0,0 l/m 35,9 km/h (5 Bft) W 275 0 min 0 W/m 3,2 C -7,0 C 35,9 km/h (5 Bft)
21.01.2007 22:01 5,4 C 86 % 1004,5 hPa 0,0 l/m 37,2 km/h (5 Bft) W-NW 285 0 min 0 W/m 3,3 C -7,4 C 37,2 km/h (5 Bft)
21.01.2007 22:16 5,3 C 90 % 1004,5 hPa 0,0 l/m 39,3 km/h (6 Bft) W 260 0 min 0 W/m 3,8 C -8,0 C 39,3 km/h (6 Bft)
21.01.2007 22:31 4,7 C 92 % 1004,5 hPa 0,0 l/m 41,0 km/h (6 Bft) W 260 0 min 0 W/m 3,5 C -9,1 C 41,0 km/h (6 Bft)
21.01.2007 22:46 4,0 C 92 % 1004,5 hPa 0,3 l/m 39,2 km/h (6 Bft) W 260 0 min 0 W/m 2,8 C -9,9 C 39,2 km/h (6 Bft)
21.01.2007 23:01 4,3 C 94 % 1004,5 hPa 0,0 l/m 38,1 km/h (6 Bft) W-NW 285 0 min 0 W/m 3,4 C -9,2 C 38,1 km/h (6 Bft)
21.01.2007 23:16 4,4 C 93 % 1004,5 hPa 0,3 l/m 43,7 km/h (6 Bft) W-NW 295 0 min 0 W/m 3,4 C -10,0 C 43,7 km/h (6 Bft)
21.01.2007 23:31 4,6 C 91 % 1005,5 hPa 0,3 l/m 35,4 km/h (5 Bft) NW 320 0 min 0 W/m 3,3 C -8,2 C 35,4 km/h (5 Bft)
21.01.2007 23:46 4,9 C 89 % 1005,5 hPa 0,0 l/m 32,2 km/h (5 Bft) NW 320 0 min 0 W/m 3,2 C -7,1 C 32,2 km/h (5 Bft)
_ Min-Zeit 10:30 14:15 08:16 - 20:16 - - - - 10:15 10:30 20:16
Minimum _ 3,9 C 72 % 995,5 hPa - 25,7 km/h (4 Bft) - - - - 2,7 C -10,6 C 25,7 km/h (4 Bft)
_ Max-Zeit 14:15 23:01 23:31 12:16 15:16 - - 00:00 00:00 19:45 20:16 15:16
Maximum _ 7,8 C 94 % 1005,5 hPa 0,6 l/m 60,2 km/h
W-NW (7 Bft)
- - 0 min 0 W/m 4,6 C -4,2 C 60,2 km/h
W-NW (7 Bft)
Durchschnitt _ 6,1 C 85 % 1000,1 hPa #3,9 l/m 42,4 km/h (6 Bft) W - #0 min. 0 W/m 3,7 C -7,2 C 42,4 km/h (6 Bft)
copyright by Holger Just